createdAt,value
2022-11-29T00:01:37.611Z,15.57
2022-11-29T00:04:04.807Z,16.08
2022-11-29T00:06:34.084Z,12.35
2022-11-29T00:09:07.676Z,14.82
2022-11-29T00:11:55.724Z,18.17
2022-11-29T00:14:23.735Z,12.65
2022-11-29T00:16:53.642Z,13.85
2022-11-29T00:19:21.350Z,13.98
2022-11-29T00:21:48.864Z,17.67
2022-11-29T00:24:16.236Z,17.70
2022-11-29T00:26:43.656Z,13.00
2022-11-29T00:29:13.038Z,10.57
2022-11-29T00:31:41.808Z,13.70
2022-11-29T00:34:11.598Z,11.05
2022-11-29T00:36:39.835Z,13.32
2022-11-29T00:39:07.293Z,13.57
2022-11-29T00:41:34.621Z,14.15
2022-11-29T00:44:01.555Z,11.60
2022-11-29T00:46:28.797Z,7.00
2022-11-29T00:48:56.021Z,9.60
2022-11-29T00:51:23.404Z,13.13
2022-11-29T00:53:50.457Z,12.25
2022-11-29T00:56:17.822Z,13.98
2022-11-29T00:58:44.887Z,12.52
2022-11-29T01:01:12.736Z,9.75
2022-11-29T01:03:39.862Z,10.35
2022-11-29T01:06:16.528Z,11.02
2022-11-29T01:08:45.767Z,9.82
2022-11-29T01:11:13.133Z,10.02
2022-11-29T01:13:40.681Z,10.48
2022-11-29T01:16:08.922Z,10.52
2022-11-29T01:18:36.575Z,10.23
2022-11-29T01:21:09.821Z,15.77
2022-11-29T01:23:37.956Z,11.18
2022-11-29T01:26:08.446Z,9.40
2022-11-29T01:28:36.260Z,10.30
2022-11-29T01:31:11.379Z,11.05
2022-11-29T01:33:38.736Z,8.32
2022-11-29T01:36:08.317Z,8.95
2022-11-29T01:38:36.161Z,8.93
2022-11-29T01:41:07.329Z,9.65
2022-11-29T01:43:52.882Z,9.88
2022-11-29T01:46:20.316Z,11.50
2022-11-29T01:48:48.960Z,6.93
2022-11-29T01:51:16.646Z,8.73
2022-11-29T01:53:43.739Z,7.10
2022-11-29T01:56:14.414Z,8.52
2022-11-29T01:58:44.009Z,8.73
2022-11-29T02:01:11.744Z,10.02
2022-11-29T02:03:38.948Z,9.30
2022-11-29T02:06:07.853Z,7.57
2022-11-29T02:08:40.983Z,6.93
2022-11-29T02:11:08.190Z,8.90
2022-11-29T02:13:53.882Z,11.45
2022-11-29T02:16:37.936Z,11.25
2022-11-29T02:19:13.912Z,8.88
2022-11-29T02:21:53.449Z,6.70
2022-11-29T02:24:38.516Z,7.60
2022-11-29T02:27:33.777Z,7.00
2022-11-29T02:30:21.933Z,8.77
2022-11-29T02:33:47.663Z,7.43
2022-11-29T02:36:42.050Z,8.68
2022-11-29T02:39:18.487Z,6.85
2022-11-29T02:42:24.051Z,8.45
2022-11-29T02:45:06.575Z,6.55
2022-11-29T02:50:03.850Z,8.02
2022-11-29T02:52:31.020Z,8.65
2022-11-29T02:55:13.446Z,6.35
2022-11-29T02:58:04.695Z,8.98
2022-11-29T03:00:36.554Z,6.25
2022-11-29T03:03:33.217Z,7.53
2022-11-29T03:06:15.929Z,6.82
2022-11-29T03:11:32.367Z,6.95
2022-11-29T03:14:23.104Z,7.75
2022-11-29T03:17:08.858Z,6.00
2022-11-29T03:20:02.231Z,7.75
2022-11-29T03:22:35.766Z,7.88
2022-11-29T03:25:26.797Z,9.10
2022-11-29T03:28:20.870Z,6.32
2022-11-29T03:31:07.071Z,7.00
2022-11-29T03:33:34.325Z,7.03
2022-11-29T03:36:09.467Z,8.18
2022-11-29T03:38:41.713Z,6.15
2022-11-29T03:41:17.782Z,7.50
2022-11-29T03:43:53.337Z,8.10
2022-11-29T03:46:35.559Z,9.27
2022-11-29T03:49:09.119Z,11.35
2022-11-29T03:52:16.020Z,7.97
2022-11-29T03:55:07.995Z,7.95
2022-11-29T03:58:09.973Z,10.98
2022-11-29T04:00:43.201Z,6.03
2022-11-29T04:03:42.445Z,7.68
2022-11-29T04:06:30.982Z,5.60
2022-11-29T04:09:19.628Z,8.10
2022-11-29T04:12:24.517Z,8.13
2022-11-29T04:15:15.348Z,5.97
2022-11-29T04:17:45.943Z,11.80
2022-11-29T04:20:39.170Z,12.30
2022-11-29T04:23:55.943Z,10.70
2022-11-29T04:26:50.784Z,10.20
2022-11-29T04:29:36.871Z,8.00
2022-11-29T04:32:43.750Z,6.07
2022-11-29T04:35:29.301Z,10.85
2022-11-29T04:38:24.132Z,10.40
2022-11-29T04:41:25.661Z,18.35
2022-11-29T04:44:01.656Z,17.42
2022-11-29T04:46:48.021Z,16.08
2022-11-29T04:49:39.606Z,19.98
2022-11-29T04:52:19.171Z,17.45
2022-11-29T04:54:55.585Z,21.02
2022-11-29T04:57:39.761Z,16.15
2022-11-29T05:00:20.743Z,15.48
2022-11-29T05:02:58.374Z,17.08
2022-11-29T05:05:49.716Z,13.82
2022-11-29T05:08:32.195Z,14.77
2022-11-29T05:11:14.375Z,16.10
2022-11-29T05:13:44.683Z,13.63
2022-11-29T05:16:30.646Z,17.10
2022-11-29T05:19:17.504Z,15.60
2022-11-29T05:21:51.113Z,14.25
2022-11-29T05:24:53.220Z,17.73
2022-11-29T05:27:36.287Z,13.82
2022-11-29T05:30:17.222Z,11.18
2022-11-29T05:33:17.949Z,9.82
2022-11-29T05:35:53.178Z,10.43
2022-11-29T05:38:40.895Z,8.30
2022-11-29T05:41:52.944Z,7.63
2022-11-29T05:44:22.037Z,11.90
2022-11-29T05:47:31.767Z,15.13
2022-11-29T05:50:36.145Z,10.10
2022-11-29T05:53:33.259Z,18.65
2022-11-29T05:56:03.101Z,18.63
2022-11-29T05:58:42.433Z,17.45
2022-11-29T06:01:23.614Z,15.57
2022-11-29T06:04:15.101Z,10.55
2022-11-29T06:07:02.797Z,8.25
2022-11-29T06:10:00.493Z,5.90
2022-11-29T06:12:38.530Z,13.88
2022-11-29T06:15:57.595Z,15.82
2022-11-29T06:18:46.820Z,6.13
2022-11-29T06:21:25.583Z,11.02
2022-11-29T06:24:30.993Z,6.88
2022-11-29T06:27:24.670Z,9.00
2022-11-29T06:30:07.087Z,4.75
2022-11-29T06:32:45.929Z,4.80
2022-11-29T06:35:45.959Z,7.25
2022-11-29T06:38:29.502Z,8.10
2022-11-29T06:41:02.038Z,12.50
2022-11-29T06:43:30.905Z,6.22
2022-11-29T06:46:07.086Z,3.67
2022-11-29T06:48:56.516Z,6.88
2022-11-29T06:51:49.677Z,7.35
2022-11-29T06:54:32.508Z,8.00
2022-11-29T06:57:18.878Z,13.45
2022-11-29T07:00:19.620Z,8.00
2022-11-29T07:02:46.530Z,8.35
2022-11-29T07:05:34.589Z,5.65
2022-11-29T07:08:10.615Z,10.48
2022-11-29T07:10:40.833Z,8.25
2022-11-29T07:13:12.585Z,6.40
2022-11-29T07:16:08.412Z,17.88
2022-11-29T07:18:59.791Z,11.25
2022-11-29T07:21:39.257Z,8.25
2022-11-29T07:24:34.315Z,9.10
2022-11-29T07:27:21.417Z,14.18
2022-11-29T07:30:15.407Z,6.60
2022-11-29T07:33:03.760Z,7.53
2022-11-29T07:35:39.992Z,4.65
2022-11-29T07:38:22.835Z,5.53
2022-11-29T07:40:52.972Z,5.15
2022-11-29T07:43:34.944Z,5.90
2022-11-29T07:46:02.177Z,7.47
2022-11-29T07:48:34.862Z,6.63
2022-11-29T07:51:02.685Z,6.05
2022-11-29T07:53:31.247Z,7.97
2022-11-29T07:56:01.665Z,9.52
2022-11-29T07:58:29.374Z,5.82
2022-11-29T08:00:56.724Z,11.75
2022-11-29T08:03:26.813Z,6.18
2022-11-29T08:05:55.589Z,4.75
2022-11-29T08:08:23.974Z,8.02
2022-11-29T08:10:51.022Z,9.07
2022-11-29T08:13:21.064Z,5.72
2022-11-29T08:15:50.961Z,9.48
2022-11-29T08:18:21.649Z,10.25
2022-11-29T08:20:48.686Z,5.82
2022-11-29T08:23:18.970Z,8.10
2022-11-29T08:25:47.806Z,9.57
2022-11-29T08:28:15.161Z,8.45
2022-11-29T08:30:44.666Z,11.55
2022-11-29T08:33:11.973Z,6.47
2022-11-29T08:35:40.049Z,11.60
2022-11-29T08:38:13.588Z,10.35
2022-11-29T08:40:43.793Z,11.48
2022-11-29T08:43:12.890Z,7.72
2022-11-29T08:45:40.312Z,6.20
2022-11-29T08:48:11.274Z,7.75
2022-11-29T08:50:39.699Z,9.07
2022-11-29T08:53:27.834Z,8.43
2022-11-29T08:56:00.408Z,5.40
2022-11-29T08:58:30.206Z,5.28
2022-11-29T09:00:59.416Z,12.07
2022-11-29T09:03:51.565Z,7.82
2022-11-29T09:06:21.087Z,7.25
2022-11-29T09:08:51.406Z,9.05
2022-11-29T09:11:23.657Z,13.02
2022-11-29T09:13:55.081Z,9.30
2022-11-29T09:16:29.739Z,6.78
2022-11-29T09:18:58.166Z,3.15
2022-11-29T09:21:36.820Z,5.63
2022-11-29T09:24:06.728Z,6.80
2022-11-29T09:26:36.947Z,8.27
2022-11-29T09:29:06.614Z,8.65
2022-11-29T09:31:35.331Z,9.45
2022-11-29T09:34:05.621Z,6.07
2022-11-29T09:36:44.792Z,9.07
2022-11-29T09:42:54.555Z,8.48
2022-11-29T09:45:32.714Z,8.13
2022-11-29T09:48:05.376Z,6.82
2022-11-29T09:50:39.505Z,10.10
2022-11-29T09:53:18.690Z,9.90
2022-11-29T09:55:58.205Z,7.15
2022-11-29T09:58:30.818Z,8.07
2022-11-29T10:01:05.439Z,16.83
2022-11-29T10:04:01.086Z,6.18
2022-11-29T10:06:59.990Z,13.63
2022-11-29T10:09:51.587Z,9.43
2022-11-29T10:12:44.534Z,15.77
2022-11-29T10:15:46.321Z,11.90
2022-11-29T10:18:24.534Z,6.75
2022-11-29T10:20:58.011Z,7.40
2022-11-29T10:23:39.097Z,10.68
2022-11-29T10:26:13.332Z,13.27
2022-11-29T10:28:47.562Z,7.90
2022-11-29T10:31:27.071Z,11.00
2022-11-29T10:33:56.554Z,10.93
2022-11-29T10:36:51.393Z,9.98
2022-11-29T10:39:28.633Z,7.35
2022-11-29T10:41:59.856Z,6.93
2022-11-29T10:44:31.605Z,7.63
2022-11-29T10:47:05.517Z,7.90
2022-11-29T10:49:37.954Z,10.43
2022-11-29T10:52:05.715Z,8.63
2022-11-29T10:54:33.285Z,6.57
2022-11-29T10:57:01.727Z,9.00
2022-11-29T10:59:31.035Z,10.18
2022-11-29T11:01:58.652Z,9.70
2022-11-29T11:04:36.886Z,10.35
2022-11-29T11:07:06.353Z,6.03
2022-11-29T11:09:48.628Z,8.45
2022-11-29T11:12:16.134Z,8.80
2022-11-29T11:14:45.399Z,6.88
2022-11-29T11:17:19.782Z,6.25
2022-11-29T11:20:09.194Z,10.15
2022-11-29T11:22:40.146Z,9.77
2022-11-29T11:25:54.802Z,6.35
2022-11-29T11:29:00.578Z,14.10
2022-11-29T11:31:40.811Z,5.28
2022-11-29T11:34:36.835Z,6.88
2022-11-29T11:37:16.633Z,7.68
2022-11-29T11:39:46.365Z,6.18
2022-11-29T11:42:37.152Z,5.72
2022-11-29T11:45:10.691Z,5.57
2022-11-29T11:47:44.924Z,7.03
2022-11-29T11:50:15.256Z,5.45
2022-11-29T11:52:52.558Z,8.50
2022-11-29T11:55:38.381Z,7.53
2022-11-29T11:58:12.408Z,9.60
2022-11-29T12:01:04.006Z,6.30
2022-11-29T12:04:02.444Z,8.35
2022-11-29T12:06:34.473Z,9.75
2022-11-29T12:09:20.059Z,10.63
2022-11-29T12:12:35.993Z,6.20
2022-11-29T12:15:11.199Z,6.22
2022-11-29T12:17:49.700Z,7.70
2022-11-29T12:20:30.611Z,8.38
2022-11-29T12:23:14.296Z,6.57
2022-11-29T12:29:32.316Z,7.68
2022-11-29T12:32:21.162Z,6.90
2022-11-29T12:35:05.339Z,4.00
2022-11-29T12:38:16.863Z,5.20
2022-11-29T12:41:21.425Z,8.27
2022-11-29T12:43:52.094Z,9.63
2022-11-29T12:46:26.115Z,11.48
2022-11-29T12:49:36.466Z,6.85
2022-11-29T12:52:12.399Z,9.48
2022-11-29T12:54:43.852Z,9.23
2022-11-29T12:57:48.031Z,13.80
2022-11-29T13:00:18.297Z,13.52
2022-11-29T13:03:16.707Z,21.45
2022-11-29T13:06:15.162Z,13.48
2022-11-29T13:09:00.471Z,22.10
2022-11-29T13:11:44.164Z,16.27
2022-11-29T13:14:48.467Z,25.83
2022-11-29T13:17:35.038Z,15.65
2022-11-29T13:20:17.563Z,17.00
2022-11-29T13:23:03.177Z,30.23
2022-11-29T13:25:40.978Z,20.55
2022-11-29T13:28:30.764Z,21.02
2022-11-29T13:34:21.584Z,20.10
2022-11-29T13:39:37.111Z,23.08
2022-11-29T13:42:22.521Z,22.33
2022-11-29T13:45:06.084Z,21.70
2022-11-29T13:47:47.264Z,25.42
2022-11-29T13:50:48.561Z,28.30
2022-11-29T13:53:19.355Z,22.40
2022-11-29T13:56:01.282Z,40.58
2022-11-29T13:58:28.777Z,38.08
2022-11-29T14:01:24.996Z,31.65
2022-11-29T14:04:14.933Z,32.08
2022-11-29T14:06:42.060Z,25.90
2022-11-29T14:09:29.047Z,32.05
2022-11-29T14:12:49.724Z,33.92
2022-11-29T14:15:26.777Z,47.15
2022-11-29T14:18:03.661Z,24.27
2022-11-29T14:20:30.963Z,28.90
2022-11-29T14:23:07.760Z,23.98
2022-11-29T14:25:53.144Z,26.33
2022-11-29T14:28:23.558Z,24.88
2022-11-29T14:30:55.531Z,23.48
2022-11-29T14:33:47.333Z,21.20
2022-11-29T14:36:14.730Z,41.03
2022-11-29T14:39:20.260Z,25.38
2022-11-29T14:42:16.108Z,27.63
2022-11-29T14:44:55.282Z,36.47
2022-11-29T14:47:27.305Z,35.50
2022-11-29T14:49:57.074Z,23.33
2022-11-29T14:52:39.381Z,33.92
2022-11-29T14:55:14.522Z,25.67
2022-11-29T14:57:48.116Z,33.17
2022-11-29T15:00:29.472Z,38.20
2022-11-29T15:03:20.805Z,43.13
2022-11-29T15:06:00.050Z,26.38
2022-11-29T15:08:30.744Z,25.02
2022-11-29T15:11:32.981Z,20.73
2022-11-29T15:14:19.068Z,30.00
2022-11-29T15:17:18.546Z,35.45
2022-11-29T15:20:23.262Z,29.80
2022-11-29T15:22:53.137Z,32.05
2022-11-29T15:25:34.424Z,20.75
2022-11-29T15:28:05.873Z,29.48
2022-11-29T15:30:42.117Z,31.20
2022-11-29T15:33:22.517Z,30.13
2022-11-29T15:36:09.281Z,20.83
2022-11-29T15:38:52.484Z,25.42
2022-11-29T15:41:30.559Z,18.92
2022-11-29T15:44:04.740Z,18.92
2022-11-29T15:46:36.389Z,24.70
2022-11-29T15:49:26.490Z,34.25
2022-11-29T15:52:10.923Z,20.58
2022-11-29T15:54:49.494Z,47.63
2022-11-29T15:57:25.203Z,42.92
2022-11-29T16:00:07.240Z,26.33
2022-11-29T16:02:45.590Z,26.98
2022-11-29T16:05:32.900Z,40.08
2022-11-29T16:08:08.341Z,23.08
2022-11-29T16:10:56.889Z,21.95
2022-11-29T16:13:40.903Z,26.30
2022-11-29T16:16:21.179Z,32.95
2022-11-29T16:18:52.803Z,34.30
2022-11-29T16:21:45.448Z,23.35
2022-11-29T16:24:21.409Z,24.73
2022-11-29T16:26:50.496Z,27.25
2022-11-29T16:29:42.630Z,25.92
2022-11-29T16:32:57.425Z,16.45
2022-11-29T16:35:28.455Z,19.65
2022-11-29T16:37:56.277Z,21.85
2022-11-29T16:40:27.504Z,29.33
2022-11-29T16:43:26.319Z,22.77
2022-11-29T16:46:21.749Z,33.45
2022-11-29T16:48:51.465Z,24.38
2022-11-29T16:51:25.885Z,15.82
2022-11-29T16:53:54.567Z,24.38
2022-11-29T16:56:28.146Z,21.92
2022-11-29T16:59:20.929Z,15.68
2022-11-29T17:01:49.901Z,20.40
2022-11-29T17:04:23.533Z,22.02
2022-11-29T17:06:59.566Z,18.30
2022-11-29T17:09:30.952Z,21.13
2022-11-29T17:12:01.064Z,23.95
2022-11-29T17:14:32.564Z,33.08
2022-11-29T17:17:02.873Z,23.80
2022-11-29T17:19:30.724Z,32.00
2022-11-29T17:21:59.815Z,22.35
2022-11-29T17:24:27.441Z,23.23
2022-11-29T17:26:56.864Z,25.85
2022-11-29T17:32:06.964Z,29.58
2022-11-29T17:34:37.118Z,21.92
2022-11-29T17:37:09.408Z,23.48
2022-11-29T17:39:36.567Z,19.55
2022-11-29T17:42:22.440Z,19.40
2022-11-29T17:44:52.845Z,14.75
2022-11-29T17:47:35.786Z,18.10
2022-11-29T17:50:07.612Z,25.50
2022-11-29T17:52:36.573Z,10.50
2022-11-29T17:55:06.836Z,33.47
2022-11-29T17:57:34.515Z,27.27
2022-11-29T18:00:06.360Z,27.48
2022-11-29T18:02:34.647Z,29.65
2022-11-29T18:05:05.359Z,25.52
2022-11-29T18:07:58.267Z,28.92
2022-11-29T18:10:29.438Z,22.67
2022-11-29T18:12:57.008Z,37.17
2022-11-29T18:15:27.489Z,29.45
2022-11-29T18:17:56.982Z,21.10
2022-11-29T18:20:24.338Z,19.77
2022-11-29T18:22:54.284Z,18.20
2022-11-29T18:25:38.789Z,14.52
2022-11-29T18:28:10.814Z,24.10
2022-11-29T18:30:48.642Z,24.88
2022-11-29T18:33:16.279Z,13.68
2022-11-29T18:35:43.625Z,20.48
2022-11-29T18:38:15.917Z,14.48
2022-11-29T18:40:50.432Z,16.30
2022-11-29T18:43:20.438Z,12.63
2022-11-29T18:45:48.441Z,15.82
2022-11-29T18:48:16.625Z,10.57
2022-11-29T18:50:43.786Z,15.23
2022-11-29T18:53:14.657Z,11.30
2022-11-29T18:55:41.838Z,10.07
2022-11-29T18:58:09.398Z,10.68
2022-11-29T19:03:51.101Z,17.08
2022-11-29T19:06:35.594Z,19.58
2022-11-29T19:09:11.583Z,8.50
2022-11-29T19:11:39.725Z,14.25
2022-11-29T19:14:12.953Z,10.95
2022-11-29T19:22:32.789Z,7.82
2022-11-29T19:25:01.305Z,19.52
2022-11-29T19:27:34.382Z,18.35
2022-11-29T19:30:01.385Z,16.08
2022-11-29T19:32:36.015Z,21.48
2022-11-29T19:35:06.856Z,12.68
2022-11-29T19:37:59.941Z,10.75
2022-11-29T19:40:32.566Z,17.30
2022-11-29T19:43:04.884Z,8.48
2022-11-29T19:45:32.074Z,9.05
2022-11-29T19:48:02.201Z,13.45
2022-11-29T19:50:38.523Z,12.13
2022-11-29T19:53:11.858Z,16.92
2022-11-29T19:55:43.880Z,15.82
2022-11-29T19:58:12.789Z,10.52
2022-11-29T20:00:43.650Z,9.00
2022-11-29T20:03:17.126Z,11.85
2022-11-29T20:05:56.861Z,15.93
2022-11-29T20:08:24.761Z,19.65
2022-11-29T20:10:56.042Z,15.60
2022-11-29T20:13:24.248Z,13.40
2022-11-29T20:16:03.119Z,11.98
2022-11-29T20:18:35.539Z,16.42
2022-11-29T20:21:07.340Z,21.65
2022-11-29T20:23:35.853Z,23.27
2022-11-29T20:26:03.002Z,29.42
2022-11-29T20:28:31.415Z,28.05
2022-11-29T20:31:08.368Z,24.00
2022-11-29T20:33:57.390Z,14.52
2022-11-29T20:40:10.306Z,18.85
2022-11-29T20:42:53.003Z,23.88
2022-11-29T20:45:20.339Z,17.95
2022-11-29T20:48:00.747Z,19.20
2022-11-29T20:50:30.357Z,14.68
2022-11-29T20:53:26.685Z,24.58
2022-11-29T20:55:53.781Z,19.38
2022-11-29T20:58:21.392Z,24.83
2022-11-29T21:00:48.553Z,32.63
2022-11-29T21:03:17.540Z,16.95
2022-11-29T21:05:45.506Z,17.92
2022-11-29T21:08:14.266Z,24.50
2022-11-29T21:10:45.946Z,18.48
2022-11-29T21:13:14.954Z,10.30
2022-11-29T21:15:43.095Z,12.60
2022-11-29T21:18:24.642Z,11.05
2022-11-29T21:21:17.075Z,12.90
2022-11-29T21:24:23.549Z,10.95
2022-11-29T21:26:51.929Z,8.18
2022-11-29T21:29:21.925Z,9.60
2022-11-29T21:31:51.839Z,11.43
2022-11-29T21:34:21.130Z,7.10
2022-11-29T21:36:59.945Z,9.00
2022-11-29T21:39:34.301Z,11.70
2022-11-29T21:42:02.969Z,8.57
2022-11-29T21:44:30.266Z,9.05
2022-11-29T21:46:57.346Z,5.45
2022-11-29T21:49:24.777Z,10.52
2022-11-29T21:51:51.996Z,7.10
2022-11-29T21:54:19.529Z,9.95
2022-11-29T21:56:46.811Z,6.80
2022-11-29T21:59:14.457Z,8.88
2022-11-29T22:01:45.295Z,11.18
2022-11-29T22:04:13.314Z,6.65
2022-11-29T22:06:40.364Z,7.68
2022-11-29T22:09:08.492Z,9.45
2022-11-29T22:11:35.730Z,13.65
2022-11-29T22:14:14.929Z,9.98
2022-11-29T22:16:56.090Z,8.45
2022-11-29T22:19:26.520Z,14.05
2022-11-29T22:21:57.992Z,9.23
2022-11-29T22:24:31.410Z,17.50
2022-11-29T22:26:59.553Z,12.88
2022-11-29T22:29:26.988Z,8.25
2022-11-29T22:31:56.332Z,5.78
2022-11-29T22:34:25.383Z,6.55
2022-11-29T22:36:52.552Z,8.93
2022-11-29T22:39:19.989Z,8.95
2022-11-29T22:41:53.594Z,8.88
2022-11-29T22:44:21.569Z,8.25
2022-11-29T22:46:48.878Z,7.05
2022-11-29T22:49:16.274Z,10.95
2022-11-29T22:51:43.297Z,7.40
2022-11-29T22:54:20.755Z,7.75
2022-11-29T22:56:48.333Z,10.48
2022-11-29T22:59:15.647Z,8.20
2022-11-29T23:01:43.240Z,9.30
2022-11-29T23:04:12.464Z,9.35
2022-11-29T23:06:58.324Z,10.60
2022-11-29T23:09:25.605Z,10.55
2022-11-29T23:12:00.979Z,5.70
2022-11-29T23:14:38.278Z,11.85
2022-11-29T23:17:12.006Z,8.07
2022-11-29T23:19:40.818Z,6.13
2022-11-29T23:22:08.173Z,5.95
2022-11-29T23:24:35.780Z,5.10
2022-11-29T23:27:03.549Z,5.00
2022-11-29T23:29:31.007Z,4.75
2022-11-29T23:31:59.260Z,2.42
2022-11-29T23:34:27.074Z,6.55
2022-11-29T23:36:54.380Z,3.28
2022-11-29T23:39:21.769Z,4.72
2022-11-29T23:41:48.729Z,4.75
2022-11-29T23:44:16.423Z,8.73
2022-11-29T23:46:43.382Z,3.42
2022-11-29T23:49:10.809Z,4.05
2022-11-29T23:51:37.784Z,5.47
2022-11-29T23:54:05.182Z,6.72
2022-11-29T23:56:35.590Z,3.17
2022-11-29T23:59:03.565Z,3.15
